Time;durP1;ratioP1;P1;durP2;ratioP2;P2;SDS_P1;SDS_P2;PMS_P1;PMS_P2;Temp;Humidity;BMP_temperature;BMP_pressure;BME280_temperature;BME280_humidity;BME280_pressure;Samples;Min_cycle;Max_cycle;Signal;HPM_P1;HPM_P2
2023/12/01 00:00:02;;;;;;;5.15;3.90;;;15.60;64.40;;;;;;5094058;28;20503;-70
2023/12/01 00:02:28;;;;;;;4.28;3.83;;;15.60;64.50;;;;;;5095334;28;20019;-70
2023/12/01 00:04:54;;;;;;;6.80;4.07;;;15.60;64.50;;;;;;5101161;28;20375;-68
2023/12/01 00:07:19;;;;;;;5.78;4.05;;;15.50;64.40;;;;;;5095993;28;20194;-70
2023/12/01 00:09:45;;;;;;;5.75;3.90;;;15.50;64.50;;;;;;5100087;28;20028;-70
2023/12/01 00:12:10;;;;;;;4.25;3.58;;;15.50;64.30;;;;;;5093525;28;20072;-68
2023/12/01 00:14:36;;;;;;;6.60;4.05;;;15.50;64.30;;;;;;5096332;28;20082;-68
2023/12/01 00:17:01;;;;;;;5.07;3.88;;;15.60;64.50;;;;;;5097438;28;20564;-70
2023/12/01 00:19:27;;;;;;;7.05;4.30;;;15.60;65.00;;;;;;5092244;28;20139;-70
2023/12/01 00:21:52;;;;;;;4.75;3.75;;;15.50;64.20;;;;;;5094283;28;20048;-70
2023/12/01 00:24:18;;;;;;;4.85;3.97;;;15.60;64.40;;;;;;5099164;28;20390;-69
2023/12/01 00:26:45;;;;;;;4.53;3.95;;;15.50;64.30;;;;;;5094238;28;20299;-69
2023/12/01 00:29:11;;;;;;;4.65;3.90;;;15.50;64.40;;;;;;5100919;28;20024;-69
2023/12/01 00:31:36;;;;;;;4.40;3.72;;;15.50;64.40;;;;;;5087996;28;20032;-70
2023/12/01 00:34:02;;;;;;;5.32;4.20;;;15.50;64.30;;;;;;5093833;28;20115;-69
2023/12/01 00:36:27;;;;;;;4.13;3.70;;;15.50;64.20;;;;;;5095544;28;20502;-70
2023/12/01 00:38:53;;;;;;;4.40;3.90;;;15.50;64.30;;;;;;5093234;28;20101;-70
2023/12/01 00:41:18;;;;;;;4.85;3.65;;;15.50;64.30;;;;;;5102547;28;20028;-70
2023/12/01 00:43:44;;;;;;;4.65;3.92;;;15.50;64.60;;;;;;5101710;28;20491;-69
2023/12/01 00:46:09;;;;;;;4.97;3.80;;;15.50;64.30;;;;;;5096490;28;20024;-70
2023/12/01 00:48:35;;;;;;;4.72;3.85;;;15.50;64.10;;;;;;5093561;28;20036;-70
2023/12/01 00:51:02;;;;;;;4.32;3.92;;;15.50;64.20;;;;;;5103561;28;20031;-68
2023/12/01 00:53:27;;;;;;;4.30;3.90;;;15.50;64.30;;;;;;5070927;28;20028;-70
2023/12/01 00:55:53;;;;;;;4.40;4.00;;;15.50;64.40;;;;;;5096486;28;20524;-69
2023/12/01 00:58:18;;;;;;;5.35;4.20;;;15.50;64.20;;;;;;5095420;28;20044;-69
2023/12/01 01:00:44;;;;;;;6.60;3.97;;;15.50;64.30;;;;;;5080484;28;20043;-70
2023/12/01 01:03:09;;;;;;;4.90;4.13;;;15.60;64.70;;;;;;5101859;28;20512;-69
2023/12/01 01:05:35;;;;;;;5.15;3.92;;;15.60;64.60;;;;;;5095966;28;21705;-70
2023/12/01 01:08:00;;;;;;;5.30;4.15;;;15.60;64.50;;;;;;5093607;28;20059;-70
2023/12/01 01:10:26;;;;;;;5.95;4.40;;;15.60;64.70;;;;;;5092509;28;20047;-70
2023/12/01 01:12:51;;;;;;;7.30;4.85;;;15.60;64.60;;;;;;5104116;28;20485;-70
2023/12/01 01:15:17;;;;;;;6.03;4.40;;;15.60;64.70;;;;;;5097033;28;20115;-70
2023/12/01 01:17:42;;;;;;;5.32;4.25;;;15.70;64.50;;;;;;5108815;28;20406;-70
2023/12/01 01:20:10;;;;;;;6.72;4.60;;;15.70;64.30;;;;;;5105939;28;20161;-69
2023/12/01 01:22:36;;;;;;;5.38;4.55;;;15.60;64.30;;;;;;5100669;28;20105;-69
2023/12/01 01:25:04;;;;;;;5.03;3.88;;;15.70;64.20;;;;;;5100212;28;20028;-69
2023/12/01 01:27:31;;;;;;;5.43;3.83;;;15.70;64.00;;;;;;5105829;28;20028;-70
2023/12/01 01:29:57;;;;;;;5.70;4.40;;;15.70;64.10;;;;;;5083225;28;20036;-70
2023/12/01 01:32:22;;;;;;;6.53;4.07;;;15.70;63.90;;;;;;5105876;28;20363;-72
2023/12/01 01:34:48;;;;;;;5.80;4.80;;;15.70;64.30;;;;;;5099030;28;20080;-70
2023/12/01 01:37:13;;;;;;;5.07;4.25;;;15.70;64.30;;;;;;5091931;28;20099;-71
2023/12/01 01:39:38;;;;;;;4.40;3.78;;;15.70;64.20;;;;;;5095583;28;20491;-71
2023/12/01 01:42:04;;;;;;;4.20;3.80;;;15.70;63.90;;;;;;5100354;28;20092;-70
2023/12/01 01:44:30;;;;;;;8.43;4.75;;;15.70;63.90;;;;;;5099308;28;20241;-70
2023/12/01 01:46:55;;;;;;;7.65;4.75;;;15.70;64.00;;;;;;5102654;28;20066;-71
2023/12/01 01:49:26;;;;;;;5.28;4.05;;;15.70;64.50;;;;;;5101644;28;20080;-70
2023/12/01 01:51:54;;;;;;;5.82;4.35;;;15.70;64.30;;;;;;5102001;28;20453;-70
2023/12/01 01:54:23;;;;;;;5.32;3.80;;;15.70;64.20;;;;;;5092342;28;20039;-71
2023/12/01 01:56:50;;;;;;;7.50;4.65;;;15.70;64.40;;;;;;5101040;28;20110;-70
2023/12/01 01:59:19;;;;;;;6.65;4.32;;;15.70;64.20;;;;;;5092402;28;20031;-71
2023/12/01 02:01:45;;;;;;;5.25;3.83;;;15.70;64.20;;;;;;5097628;28;20031;-70
2023/12/01 02:04:11;;;;;;;5.38;4.28;;;15.70;64.20;;;;;;5097830;28;20454;-71
2023/12/01 02:06:37;;;;;;;5.60;4.38;;;15.70;64.90;;;;;;5097464;28;20527;-70
2023/12/01 02:09:03;;;;;;;3.92;3.53;;;15.70;64.20;;;;;;5100664;28;20062;-71
2023/12/01 02:11:28;;;;;;;4.10;3.58;;;15.70;64.20;;;;;;5098744;28;20051;-71
2023/12/01 02:13:54;;;;;;;5.07;4.18;;;15.60;64.20;;;;;;5098858;28;20498;-71
2023/12/01 02:16:20;;;;;;;4.50;3.85;;;15.60;64.10;;;;;;5096341;28;20117;-71
2023/12/01 02:18:45;;;;;;;3.95;3.47;;;15.60;64.10;;;;;;5098409;28;20448;-72
2023/12/01 02:21:11;;;;;;;5.07;4.00;;;15.60;64.20;;;;;;5093122;28;20032;-71
2023/12/01 02:23:36;;;;;;;4.43;3.90;;;15.60;64.10;;;;;;5092778;28;20674;-71
2023/12/01 02:26:02;;;;;;;5.00;4.10;;;15.60;64.10;;;;;;5100166;28;20061;-71
2023/12/01 02:28:27;;;;;;;4.47;4.07;;;15.60;64.10;;;;;;5095106;28;20402;-71
2023/12/01 02:30:54;;;;;;;4.85;4.38;;;15.60;64.00;;;;;;5099572;28;20114;-71
2023/12/01 02:33:21;;;;;;;4.88;4.03;;;15.60;64.00;;;;;;5096657;28;20034;-70
2023/12/01 02:35:50;;;;;;;4.10;3.70;;;15.60;64.10;;;;;;5099475;28;20047;-70
2023/12/01 02:38:17;;;;;;;8.27;4.30;;;15.60;64.00;;;;;;5099034;28;20072;-72
2023/12/01 02:40:43;;;;;;;6.97;4.13;;;15.70;64.50;;;;;;5097675;28;20109;-72
2023/12/01 02:43:11;;;;;;;12.40;4.88;;;15.90;63.80;;;;;;5096379;28;20055;-69
2023/12/01 02:45:37;;;;;;;5.38;4.40;;;15.90;63.50;;;;;;5100982;28;20114;-72
2023/12/01 02:48:02;;;;;;;12.18;4.68;;;15.90;63.80;;;;;;5099186;28;20173;-71
2023/12/01 02:50:28;;;;;;;10.48;3.70;;;15.80;63.90;;;;;;5098500;28;20115;-72
2023/12/01 02:52:53;;;;;;;9.00;4.15;;;15.80;63.90;;;;;;5097231;28;20027;-72
2023/12/01 02:55:19;;;;;;;6.88;4.03;;;15.80;63.80;;;;;;5098203;28;20509;-70
2023/12/01 02:57:45;;;;;;;8.20;4.18;;;15.70;64.00;;;;;;5095675;28;20043;-72
2023/12/01 03:00:13;;;;;;;5.82;4.05;;;15.70;63.80;;;;;;5098635;28;20095;-73
2023/12/01 03:02:40;;;;;;;6.70;3.90;;;15.70;63.80;;;;;;5092680;28;20051;-73
2023/12/01 03:05:07;;;;;;;6.70;4.65;;;15.70;63.80;;;;;;5096538;28;20024;-71
2023/12/01 03:07:32;;;;;;;6.50;4.38;;;15.70;64.00;;;;;;5095478;28;20473;-71
2023/12/01 03:09:58;;;;;;;8.13;4.43;;;15.70;64.00;;;;;;5101085;28;20028;-71
2023/12/01 03:12:23;;;;;;;6.68;4.38;;;15.70;64.10;;;;;;5100836;28;20395;-71
2023/12/01 03:14:49;;;;;;;4.80;4.15;;;15.70;64.20;;;;;;5080829;28;20775;-71
2023/12/01 03:17:14;;;;;;;4.85;3.97;;;15.70;64.30;;;;;;5094219;28;20024;-70
2023/12/01 03:19:40;;;;;;;5.47;3.67;;;15.70;64.00;;;;;;5093302;28;20051;-70
2023/12/01 03:22:05;;;;;;;13.32;4.78;;;15.70;64.10;;;;;;5093832;28;20032;-69
2023/12/01 03:24:31;;;;;;;4.53;3.88;;;15.70;64.60;;;;;;5094335;28;20058;-70
2023/12/01 03:26:56;;;;;;;6.63;3.72;;;15.70;64.00;;;;;;5092113;28;20503;-71
2023/12/01 03:29:22;;;;;;;6.05;4.47;;;15.70;63.90;;;;;;5094229;28;20036;-71
2023/12/01 03:31:47;;;;;;;8.57;4.57;;;15.70;63.60;;;;;;5086914;28;20571;-70
2023/12/01 03:34:13;;;;;;;5.97;3.72;;;15.70;63.80;;;;;;5102177;28;20026;-71
2023/12/01 03:36:38;;;;;;;4.85;3.30;;;15.70;63.60;;;;;;5089050;28;20407;-71
2023/12/01 03:39:03;;;;;;;4.55;4.10;;;15.70;63.50;;;;;;5101603;28;20550;-70
2023/12/01 03:41:29;;;;;;;4.20;3.65;;;15.70;63.60;;;;;;5096993;28;20038;-70
2023/12/01 03:43:54;;;;;;;8.50;4.00;;;15.80;63.50;;;;;;5099291;28;20397;-71
2023/12/01 03:46:20;;;;;;;4.57;3.60;;;15.70;63.40;;;;;;5096122;28;20039;-70
2023/12/01 03:48:45;;;;;;;4.57;3.80;;;15.70;63.50;;;;;;5088075;28;20028;-70
2023/12/01 03:51:11;;;;;;;3.97;3.45;;;15.70;63.50;;;;;;5089387;28;20027;-71
2023/12/01 03:53:37;;;;;;;4.55;3.83;;;15.70;63.40;;;;;;5103092;28;20413;-73
2023/12/01 03:56:03;;;;;;;4.45;3.72;;;15.70;63.50;;;;;;5081236;28;20059;-71
2023/12/01 03:58:29;;;;;;;4.47;3.90;;;15.70;63.30;;;;;;5091776;28;20051;-70
2023/12/01 04:00:55;;;;;;;4.22;3.80;;;15.70;63.40;;;;;;5101973;28;20392;-72
2023/12/01 04:03:20;;;;;;;3.88;3.50;;;15.70;63.30;;;;;;5099394;28;20483;-71
2023/12/01 04:05:47;;;;;;;4.25;3.78;;;15.70;63.40;;;;;;5097522;28;20070;-71
2023/12/01 04:08:12;;;;;;;6.85;4.00;;;15.70;63.20;;;;;;5098238;28;20048;-71
2023/12/01 04:10:38;;;;;;;4.43;3.50;;;15.70;63.80;;;;;;5098173;28;20039;-71
2023/12/01 04:13:11;;;;;;;4.65;3.67;;;15.70;63.40;;;;;;5098504;28;20028;-70
2023/12/01 04:15:36;;;;;;;5.30;3.33;;;15.80;63.10;;;;;;5098609;28;20032;-71
2023/12/01 04:18:06;;;;;;;7.18;3.78;;;15.80;63.20;;;;;;5092673;28;20043;-73
2023/12/01 04:20:35;;;;;;;4.43;3.88;;;15.80;63.20;;;;;;5093275;28;20031;-71
2023/12/01 04:23:02;;;;;;;4.70;3.47;;;15.80;63.40;;;;;;5088846;28;20119;-73
2023/12/01 04:25:28;;;;;;;4.53;3.50;;;15.80;63.30;;;;;;5093232;28;20034;-72
2023/12/01 04:27:57;;;;;;;6.68;4.10;;;15.80;63.40;;;;;;5090209;28;20024;-72
2023/12/01 04:30:23;;;;;;;4.97;4.18;;;15.80;63.80;;;;;;5099003;28;20446;-70
2023/12/01 04:32:52;;;;;;;4.55;3.75;;;15.70;63.50;;;;;;5097500;28;20043;-70
2023/12/01 04:35:18;;;;;;;4.53;3.75;;;15.70;63.40;;;;;;5099205;28;20115;-70
2023/12/01 04:37:44;;;;;;;4.90;3.55;;;15.70;63.40;;;;;;5097460;28;20158;-69
2023/12/01 04:40:16;;;;;;;3.92;3.60;;;15.70;63.60;;;;;;5096176;28;20035;-69
2023/12/01 04:42:49;;;;;;;4.50;3.50;;;15.70;63.50;;;;;;5097493;28;20043;-68
2023/12/01 04:45:20;;;;;;;3.78;3.38;;;15.70;63.40;;;;;;5094482;28;20059;-68
2023/12/01 04:47:50;;;;;;;4.50;4.00;;;15.70;63.20;;;;;;5095094;28;20027;-68
2023/12/01 04:50:15;;;;;;;4.50;4.10;;;15.70;63.20;;;;;;5074179;28;20028;-69
2023/12/01 04:53:07;;;;;;;4.00;3.55;;;15.70;63.20;;;;;;5095303;28;20047;-68
2023/12/01 04:55:33;;;;;;;3.97;3.42;;;15.70;63.20;;;;;;5093713;28;20107;-71
2023/12/01 04:57:58;;;;;;;5.28;3.47;;;15.70;63.40;;;;;;5106299;28;20111;-72
2023/12/01 05:00:26;;;;;;;3.70;3.40;;;15.70;63.60;;;;;;5104776;28;20505;-69
2023/12/01 05:03:10;;;;;;;3.92;3.35;;;15.60;63.20;;;;;;5100454;28;20032;-71
2023/12/01 05:05:38;;;;;;;5.13;3.92;;;15.70;63.20;;;;;;5100547;28;20035;-71
2023/12/01 05:08:05;;;;;;;3.90;3.50;;;15.70;63.40;;;;;;5088007;28;20028;-71
2023/12/01 05:10:32;;;;;;;4.15;3.75;;;15.60;63.20;;;;;;5099237;28;21294;-70
2023/12/01 05:13:03;;;;;;;5.00;4.05;;;15.60;63.40;;;;;;5098374;28;20033;-70
2023/12/01 05:15:30;;;;;;;6.70;4.28;;;15.60;63.60;;;;;;5103071;28;20042;-70
2023/12/01 05:18:00;;;;;;;4.65;3.60;;;15.60;63.40;;;;;;5102697;28;20080;-71
2023/12/01 05:20:27;;;;;;;3.60;3.15;;;15.70;63.20;;;;;;5099761;28;20406;-69
2023/12/01 05:22:58;;;;;;;4.13;3.60;;;15.70;63.20;;;;;;5084689;28;20494;-70
2023/12/01 05:25:25;;;;;;;5.10;4.15;;;15.70;63.00;;;;;;5104943;28;20539;-70
2023/12/01 05:27:56;;;;;;;5.18;3.80;;;15.70;63.30;;;;;;5095350;28;20435;-70
2023/12/01 05:30:27;;;;;;;4.25;3.83;;;15.70;63.50;;;;;;5097967;28;20107;-70
2023/12/01 05:32:53;;;;;;;4.57;3.90;;;15.70;63.60;;;;;;5090710;28;20044;-71
2023/12/01 05:35:20;;;;;;;8.48;3.67;;;15.60;63.60;;;;;;5104705;28;20038;-70
2023/12/01 05:37:50;;;;;;;4.45;3.85;;;15.70;63.90;;;;;;5075861;28;20138;-70
2023/12/01 05:40:20;;;;;;;5.25;3.83;;;15.70;63.50;;;;;;5099427;28;20038;-71
2023/12/01 05:42:47;;;;;;;12.50;4.90;;;15.70;63.00;;;;;;5073697;28;20402;-71
2023/12/01 05:45:14;;;;;;;7.35;4.60;;;15.70;64.70;;;;;;5100027;28;20314;-70
2023/12/01 05:47:44;;;;;;;5.22;4.00;;;15.70;63.80;;;;;;5096585;28;20024;-70
2023/12/01 05:50:12;;;;;;;9.63;4.65;;;15.70;63.70;;;;;;5098474;28;20024;-71
2023/12/01 05:52:38;;;;;;;9.27;4.78;;;16.00;63.40;;;;;;5097709;28;20098;-71
2023/12/01 05:55:10;;;;;;;10.52;4.55;;;16.00;62.70;;;;;;5098425;28;20036;-70
2023/12/01 05:57:36;;;;;;;6.68;4.60;;;15.90;62.50;;;;;;5099385;28;20024;-70
2023/12/01 06:00:02;;;;;;;7.78;4.25;;;15.80;62.40;;;;;;5095803;28;20081;-68
2023/12/01 06:02:28;;;;;;;5.97;4.82;;;15.70;62.40;;;;;;5102590;28;20134;-67
2023/12/01 06:04:54;;;;;;;8.27;6.50;;;15.90;62.30;;;;;;5092036;28;20092;-69
2023/12/01 06:07:20;;;;;;;14.02;8.25;;;15.90;61.90;;;;;;5093187;28;20494;-69
2023/12/01 06:09:45;;;;;;;12.27;8.23;;;15.70;62.30;;;;;;5105481;28;20028;-69
2023/12/01 06:12:11;;;;;;;11.85;8.95;;;15.60;61.50;;;;;;5099643;28;20383;-69
2023/12/01 06:14:36;;;;;;;13.07;9.40;;;15.50;62.20;;;;;;5096388;28;20394;-68
2023/12/01 06:17:04;;;;;;;13.30;10.32;;;15.40;61.60;;;;;;5097159;28;20330;-68
2023/12/01 06:19:29;;;;;;;15.20;10.60;;;15.30;62.20;;;;;;5101500;28;20023;-69
2023/12/01 06:21:57;;;;;;;14.60;10.63;;;15.30;62.00;;;;;;5085566;28;20028;-67
2023/12/01 06:24:23;;;;;;;16.75;11.75;;;15.30;61.80;;;;;;5092798;28;20063;-68
2023/12/01 06:26:48;;;;;;;15.32;11.60;;;15.20;61.40;;;;;;5105125;28;20062;-68
2023/12/01 06:29:15;;;;;;;19.55;12.57;;;15.20;61.70;;;;;;5106345;28;20497;-67
2023/12/01 06:31:40;;;;;;;17.95;12.55;;;15.40;61.60;;;;;;5101893;28;20035;-67
2023/12/01 06:34:06;;;;;;;19.05;11.95;;;15.60;60.10;;;;;;5100641;28;20431;-68
2023/12/01 06:36:31;;;;;;;18.58;12.57;;;15.90;59.20;;;;;;5100810;28;20056;-68
2023/12/01 06:38:57;;;;;;;16.83;12.30;;;16.30;58.30;;;;;;5094347;28;20028;-70
2023/12/01 06:41:22;;;;;;;17.95;12.60;;;16.60;57.50;;;;;;5101215;28;20559;-70
2023/12/01 06:43:48;;;;;;;17.33;12.38;;;16.80;56.90;;;;;;5099242;28;20559;-69
2023/12/01 06:46:13;;;;;;;13.45;10.75;;;17.00;56.90;;;;;;5103368;28;20019;-65
2023/12/01 06:48:38;;;;;;;19.58;13.52;;;17.20;55.90;;;;;;5104918;28;20031;-68
2023/12/01 06:51:04;;;;;;;17.92;13.57;;;17.40;55.50;;;;;;5104766;28;20046;-69
2023/12/01 06:53:30;;;;;;;17.45;12.65;;;17.50;55.20;;;;;;5095064;28;20027;-69
2023/12/01 06:55:55;;;;;;;17.88;12.68;;;17.60;55.00;;;;;;5100788;28;20032;-67
2023/12/01 06:58:21;;;;;;;17.63;13.13;;;17.70;54.90;;;;;;5096111;28;20027;-68
2023/12/01 07:00:48;;;;;;;17.70;12.82;;;17.80;54.70;;;;;;5099767;28;20402;-68
2023/12/01 07:03:13;;;;;;;18.58;13.15;;;17.80;54.50;;;;;;5099054;28;20032;-69
2023/12/01 07:05:39;;;;;;;18.20;12.80;;;17.90;54.40;;;;;;5081487;28;20529;-68
2023/12/01 07:08:11;;;;;;;17.25;12.20;;;18.00;54.20;;;;;;5098434;28;20084;-68
2023/12/01 07:10:37;;;;;;;16.25;13.13;;;18.00;54.10;;;;;;5104071;28;20092;-69
2023/12/01 07:13:03;;;;;;;15.73;12.07;;;18.00;54.20;;;;;;5093488;28;20025;-68
2023/12/01 07:15:29;;;;;;;18.35;13.00;;;18.00;54.20;;;;;;5096934;28;20051;-67
2023/12/01 07:17:57;;;;;;;17.13;13.32;;;17.90;54.10;;;;;;5095371;28;20164;-68
2023/12/01 07:20:23;;;;;;;17.75;12.88;;;17.80;54.30;;;;;;5097206;28;20352;-69
2023/12/01 07:22:51;;;;;;;18.08;13.25;;;17.80;54.30;;;;;;5099415;28;20021;-69
2023/12/01 07:25:21;;;;;;;18.15;14.30;;;17.70;54.50;;;;;;5096193;28;20420;-68
2023/12/01 07:27:49;;;;;;;19.25;13.43;;;17.60;55.30;;;;;;5104609;28;20032;-68
2023/12/01 07:30:16;;;;;;;20.08;14.15;;;17.50;55.20;;;;;;5098269;28;20528;-69
2023/12/01 07:32:45;;;;;;;20.92;14.15;;;17.40;55.30;;;;;;5093102;28;20048;-68
2023/12/01 07:35:12;;;;;;;20.95;14.80;;;17.30;56.40;;;;;;5099131;28;20028;-68
2023/12/01 07:37:38;;;;;;;21.58;15.35;;;17.20;55.90;;;;;;5098518;28;20024;-68
2023/12/01 07:40:06;;;;;;;22.75;15.10;;;17.10;56.10;;;;;;5099216;28;20028;-66
2023/12/01 07:42:32;;;;;;;22.02;14.27;;;17.00;56.60;;;;;;5092651;28;20039;-68
2023/12/01 07:44:58;;;;;;;31.23;15.35;;;16.90;56.70;;;;;;5096024;28;20055;-68
2023/12/01 07:47:24;;;;;;;29.70;14.27;;;16.90;56.40;;;;;;5099453;28;20066;-69
2023/12/01 07:49:49;;;;;;;29.80;14.55;;;17.10;56.50;;;;;;5090294;28;20120;-69
2023/12/01 07:52:15;;;;;;;26.50;14.15;;;17.10;56.60;;;;;;5100926;28;20106;-67
2023/12/01 07:54:40;;;;;;;29.30;13.75;;;17.00;56.70;;;;;;5097338;28;20020;-67
2023/12/01 07:57:06;;;;;;;23.70;12.85;;;17.00;57.00;;;;;;5102195;28;20529;-69
2023/12/01 07:59:31;;;;;;;25.40;12.65;;;16.90;57.10;;;;;;5097136;28;20040;-68
2023/12/01 08:01:58;;;;;;;24.80;14.05;;;16.90;57.30;;;;;;5089246;28;20064;-68
2023/12/01 08:04:23;;;;;;;31.88;15.13;;;16.80;57.50;;;;;;5092350;28;20094;-68
2023/12/01 08:06:49;;;;;;;23.58;13.20;;;16.80;57.70;;;;;;5091266;28;20035;-67
2023/12/01 08:09:16;;;;;;;21.38;12.60;;;16.70;57.90;;;;;;5094100;28;20028;-67
2023/12/01 08:11:43;;;;;;;23.00;12.65;;;16.70;58.10;;;;;;5101973;28;20107;-68
2023/12/01 08:14:10;;;;;;;23.73;13.55;;;16.60;58.10;;;;;;5091847;28;20059;-68
2023/12/01 08:16:35;;;;;;;23.08;12.50;;;16.60;58.40;;;;;;5097852;28;20301;-69
2023/12/01 08:19:01;;;;;;;27.02;13.65;;;16.50;58.50;;;;;;5095819;28;20097;-68
2023/12/01 08:21:26;;;;;;;17.83;12.00;;;16.50;58.70;;;;;;5094753;28;20324;-65
2023/12/01 08:23:52;;;;;;;20.42;12.52;;;16.50;58.90;;;;;;5092866;28;20512;-68
2023/12/01 08:26:17;;;;;;;21.50;12.20;;;16.40;59.00;;;;;;5099518;28;20114;-68
2023/12/01 08:28:42;;;;;;;20.02;12.32;;;16.40;59.00;;;;;;5096515;28;20057;-68
2023/12/01 08:31:08;;;;;;;19.92;11.90;;;16.40;59.00;;;;;;5099930;28;20588;-67
2023/12/01 08:33:35;;;;;;;24.27;12.27;;;16.30;59.10;;;;;;5102401;28;20035;-66
2023/12/01 08:36:01;;;;;;;19.65;12.20;;;16.30;59.20;;;;;;5098600;28;20046;-68
2023/12/01 08:38:26;;;;;;;19.52;12.77;;;16.30;59.30;;;;;;5101055;28;20443;-65
2023/12/01 08:40:52;;;;;;;17.13;11.90;;;16.20;59.40;;;;;;5092469;28;20035;-67
2023/12/01 08:43:17;;;;;;;18.05;11.48;;;16.20;59.50;;;;;;5095780;28;20398;-66
2023/12/01 08:45:43;;;;;;;19.25;11.30;;;16.20;59.60;;;;;;5096579;28;20051;-68
2023/12/01 08:48:09;;;;;;;16.23;11.18;;;16.20;59.70;;;;;;5104412;28;20509;-67
2023/12/01 08:50:35;;;;;;;19.10;12.30;;;16.10;59.70;;;;;;5097540;28;20096;-67
2023/12/01 08:53:00;;;;;;;21.40;12.10;;;16.10;59.80;;;;;;5100657;28;20469;-66
2023/12/01 08:55:25;;;;;;;15.80;11.13;;;16.10;59.90;;;;;;5093384;28;20020;-67
2023/12/01 08:57:51;;;;;;;16.75;11.43;;;16.00;59.90;;;;;;5098305;28;20028;-67
2023/12/01 09:00:20;;;;;;;14.70;11.27;;;16.00;60.10;;;;;;5099364;28;20027;-64
2023/12/01 09:02:46;;;;;;;17.85;11.45;;;16.00;60.20;;;;;;5098590;28;20594;-68
2023/12/01 09:05:11;;;;;;;16.33;12.32;;;16.00;60.20;;;;;;5086482;28;20052;-68
2023/12/01 09:07:37;;;;;;;17.35;10.77;;;16.00;60.30;;;;;;5094924;28;20475;-69
2023/12/01 09:10:03;;;;;;;18.60;11.85;;;16.00;60.30;;;;;;5088895;28;20027;-67
2023/12/01 09:12:28;;;;;;;15.98;11.48;;;15.90;60.40;;;;;;5092409;28;20379;-69
2023/12/01 09:14:54;;;;;;;18.42;11.80;;;15.90;60.50;;;;;;5089364;28;20569;-69
2023/12/01 09:17:19;;;;;;;17.83;11.25;;;15.80;60.60;;;;;;5099691;28;20023;-69
2023/12/01 09:19:44;;;;;;;16.15;11.27;;;15.80;60.70;;;;;;5095673;28;21459;-69
2023/12/01 09:22:10;;;;;;;13.88;10.57;;;15.80;60.90;;;;;;5099439;28;20056;-69
2023/12/01 09:24:35;;;;;;;15.48;11.60;;;15.80;61.00;;;;;;5100284;28;20498;-69
2023/12/01 09:27:01;;;;;;;16.13;11.80;;;15.80;61.10;;;;;;5098224;28;20059;-69
2023/12/01 09:29:26;;;;;;;16.95;11.50;;;15.70;61.10;;;;;;5080710;28;20024;-69
2023/12/01 09:31:52;;;;;;;17.50;11.68;;;15.80;61.20;;;;;;5100879;28;20105;-69
2023/12/01 09:34:17;;;;;;;15.20;10.85;;;15.70;61.10;;;;;;5097351;28;20446;-66
2023/12/01 09:36:43;;;;;;;14.18;10.75;;;15.70;61.20;;;;;;5094100;28;20074;-69
2023/12/01 09:39:09;;;;;;;13.30;10.23;;;15.70;61.20;;;;;;5101497;28;20027;-69
2023/12/01 09:41:36;;;;;;;12.32;10.35;;;15.70;61.30;;;;;;5097170;28;20032;-69
2023/12/01 09:44:02;;;;;;;15.82;10.95;;;15.70;61.40;;;;;;5103831;28;20024;-69
2023/12/01 09:46:34;;;;;;;13.98;10.38;;;15.70;61.40;;;;;;5099182;28;20077;-69
2023/12/01 09:49:02;;;;;;;14.95;10.32;;;15.70;61.40;;;;;;5098497;28;20038;-69
2023/12/01 09:51:27;;;;;;;12.02;9.15;;;15.60;61.30;;;;;;5099115;28;20028;-68
2023/12/01 09:53:54;;;;;;;10.73;9.10;;;15.60;61.50;;;;;;5101016;28;20575;-69
2023/12/01 09:56:19;;;;;;;14.35;10.55;;;15.60;61.40;;;;;;5082969;28;20027;-70
2023/12/01 09:58:46;;;;;;;12.93;10.57;;;15.60;61.50;;;;;;5101111;28;20036;-70
2023/12/01 10:01:13;;;;;;;12.65;9.10;;;15.60;61.40;;;;;;5100623;28;20046;-70
2023/12/01 10:03:39;;;;;;;14.02;9.90;;;15.60;61.50;;;;;;5096623;28;20047;-70
2023/12/01 10:06:07;;;;;;;12.18;10.02;;;15.70;61.30;;;;;;5094986;28;20386;-70
2023/12/01 10:08:34;;;;;;;13.70;9.05;;;15.70;61.00;;;;;;5096111;28;20092;-69
2023/12/01 10:10:59;;;;;;;11.82;7.80;;;15.70;61.30;;;;;;5101262;28;20053;-67
2023/12/01 10:13:25;;;;;;;11.82;8.45;;;15.90;61.20;;;;;;5093318;28;20092;-67
2023/12/01 10:15:50;;;;;;;10.52;8.43;;;16.40;59.50;;;;;;5098677;28;20521;-68
2023/12/01 10:18:19;;;;;;;12.30;8.65;;;16.80;58.00;;;;;;5098874;28;20031;-68
2023/12/01 10:20:58;;;;;;;12.55;8.90;;;17.10;57.30;;;;;;5098002;28;20043;-67
2023/12/01 10:23:24;;;;;;;11.48;7.88;;;17.20;57.00;;;;;;5100013;28;20510;-67
2023/12/01 10:25:51;;;;;;;8.80;7.25;;;17.20;56.90;;;;;;5100566;28;20121;-68
2023/12/01 10:28:17;;;;;;;10.45;7.55;;;17.20;56.90;;;;;;5100911;28;20039;-68
2023/12/01 10:30:53;;;;;;;8.85;7.22;;;17.30;56.80;;;;;;5099974;28;20043;-67
2023/12/01 10:33:19;;;;;;;10.73;8.15;;;17.30;56.80;;;;;;5099831;28;20814;-68
2023/12/01 10:36:04;;;;;;;10.35;7.68;;;17.30;56.90;;;;;;5093392;28;20036;-68
2023/12/01 10:38:30;;;;;;;10.55;7.38;;;17.30;56.80;;;;;;5095455;28;20111;-66
2023/12/01 10:40:57;;;;;;;9.23;7.20;;;17.40;56.60;;;;;;5102320;28;20084;-67
2023/12/01 10:43:24;;;;;;;11.57;7.15;;;17.60;56.40;;;;;;5095775;28;20123;-67
2023/12/01 10:45:50;;;;;;;9.48;6.45;;;17.70;56.80;;;;;;5100856;28;21160;-67
2023/12/01 10:48:19;;;;;;;8.60;6.80;;;17.80;56.20;;;;;;5097940;28;20028;-69
2023/12/01 10:50:46;;;;;;;10.30;7.57;;;17.80;55.90;;;;;;5097228;28;20028;-68
2023/12/01 10:53:14;;;;;;;10.57;7.50;;;17.90;55.70;;;;;;5097186;28;20281;-69
2023/12/01 10:55:41;;;;;;;11.68;7.55;;;18.00;55.50;;;;;;5096416;28;20056;-67
2023/12/01 10:58:08;;;;;;;11.80;7.13;;;18.00;55.50;;;;;;5092042;28;20502;-68
2023/12/01 11:00:34;;;;;;;10.60;6.65;;;18.00;55.40;;;;;;5090105;28;20135;-68
2023/12/01 11:03:03;;;;;;;11.02;7.07;;;18.00;55.50;;;;;;5088028;28;20106;-68
2023/12/01 11:05:31;;;;;;;9.48;6.80;;;18.00;55.40;;;;;;5088806;28;20109;-68
2023/12/01 11:08:27;;;;;;;10.45;6.93;;;18.10;55.60;;;;;;5090167;28;20028;-68
2023/12/01 11:11:07;;;;;;;22.48;6.80;;;18.10;55.50;;;;;;5087467;28;20521;-68
2023/12/01 11:13:54;;;;;;;9.70;6.25;;;18.00;55.60;;;;;;5098793;28;20328;-68
2023/12/01 11:16:20;;;;;;;8.60;6.07;;;18.00;55.70;;;;;;5093472;28;20032;-68
2023/12/01 11:18:45;;;;;;;8.25;5.93;;;18.00;55.70;;;;;;5072527;28;20047;-68
2023/12/01 11:21:11;;;;;;;10.32;6.68;;;18.00;55.80;;;;;;5091903;28;20046;-68
2023/12/01 11:23:36;;;;;;;8.68;6.15;;;18.00;55.90;;;;;;5101397;28;20128;-68
2023/12/01 11:26:06;;;;;;;7.63;6.22;;;17.90;55.90;;;;;;5093005;28;20034;-67
2023/12/01 11:31:08;;;;;;;8.65;6.28;;;17.90;55.90;;;;;;5090894;28;20071;-68
2023/12/01 11:33:43;;;;;;;7.70;5.72;;;17.90;55.90;;;;;;5086646;28;20130;-67
2023/12/01 11:36:26;;;;;;;7.80;6.07;;;17.90;56.00;;;;;;5068644;28;20066;-68
2023/12/01 11:41:41;;;;;;;7.35;5.82;;;17.80;56.00;;;;;;5094063;28;20566;-68
2023/12/01 11:44:10;;;;;;;6.15;5.10;;;17.90;56.10;;;;;;5096863;28;20119;-65
2023/12/01 11:46:39;;;;;;;7.32;6.20;;;17.80;56.10;;;;;;5091458;28;20028;-65
2023/12/01 11:49:05;;;;;;;7.60;5.65;;;17.80;56.10;;;;;;5096016;28;20552;-63
2023/12/01 11:51:31;;;;;;;5.38;4.85;;;17.80;56.00;;;;;;5095518;28;20494;-67
2023/12/01 11:54:01;;;;;;;7.40;5.55;;;17.90;55.90;;;;;;5096816;28;20042;-64
2023/12/01 11:56:28;;;;;;;8.35;5.63;;;18.00;55.80;;;;;;5079773;28;20038;-64
2023/12/01 11:58:54;;;;;;;11.00;5.97;;;18.00;55.80;;;;;;5095487;28;20051;-68
2023/12/01 12:01:20;;;;;;;8.00;6.65;;;17.90;55.80;;;;;;5076550;28;20533;-67
2023/12/01 12:03:56;;;;;;;6.50;5.28;;;17.90;55.80;;;;;;5072929;28;20532;-67
2023/12/01 12:06:23;;;;;;;8.25;6.38;;;17.90;55.80;;;;;;5080967;28;20246;-67
2023/12/01 12:08:50;;;;;;;7.40;5.68;;;18.00;55.90;;;;;;5086538;28;20055;-65
2023/12/01 12:11:16;;;;;;;8.63;6.05;;;18.10;55.70;;;;;;5091719;28;20123;-68
2023/12/01 12:13:42;;;;;;;7.13;5.78;;;18.20;55.50;;;;;;5090447;28;20573;-67
2023/12/01 12:16:08;;;;;;;6.95;5.22;;;18.20;55.40;;;;;;5088218;28;20424;-64
2023/12/01 12:18:34;;;;;;;8.18;5.47;;;18.20;56.00;;;;;;5092483;28;20451;-64
2023/12/01 12:21:04;;;;;;;6.95;5.00;;;18.20;55.40;;;;;;5092524;28;20031;-68
2023/12/01 12:23:30;;;;;;;8.68;5.40;;;18.20;55.50;;;;;;5086080;28;20024;-67
2023/12/01 12:26:22;;;;;;;7.40;5.55;;;18.10;55.50;;;;;;5092890;28;20063;-68
2023/12/01 12:28:52;;;;;;;6.18;4.70;;;18.10;55.50;;;;;;5092321;28;20062;-68
2023/12/01 12:31:18;;;;;;;5.78;5.15;;;18.10;55.60;;;;;;5063472;28;20035;-68
2023/12/01 12:33:44;;;;;;;7.05;5.15;;;18.10;55.60;;;;;;5093272;28;20032;-68
2023/12/01 12:36:12;;;;;;;8.13;5.20;;;18.00;55.60;;;;;;5097928;28;20670;-67
2023/12/01 12:38:38;;;;;;;6.28;4.68;;;18.00;55.70;;;;;;5097324;28;20571;-68
2023/12/01 12:41:19;;;;;;;7.47;4.90;;;18.00;55.80;;;;;;5090148;28;20042;-66
2023/12/01 12:43:48;;;;;;;6.20;4.55;;;18.00;55.80;;;;;;5092191;28;20702;-63